createdAt,value
2023-05-21T00:00:11.984Z,97654.28
2023-05-21T00:02:44.265Z,97648.86
2023-05-21T00:05:15.040Z,97650.21
2023-05-21T00:07:44.020Z,97639.94
2023-05-21T00:10:12.143Z,97639.00
2023-05-21T00:12:41.168Z,97641.95
2023-05-21T00:15:10.192Z,97642.16
2023-05-21T00:17:39.482Z,97649.59
2023-05-21T00:20:08.584Z,97650.38
2023-05-21T00:22:36.970Z,97644.39
2023-05-21T00:25:05.529Z,97643.39
2023-05-21T00:27:33.211Z,97639.91
2023-05-21T00:30:01.540Z,97643.39
2023-05-21T00:32:30.423Z,97648.03
2023-05-21T00:34:58.340Z,97652.10
2023-05-21T00:37:26.294Z,97645.45
2023-05-21T00:39:55.713Z,97640.36
2023-05-21T00:42:25.770Z,97640.72
2023-05-21T00:44:54.002Z,97639.49
2023-05-21T00:47:22.271Z,97638.63
2023-05-21T00:49:52.568Z,97639.68
2023-05-21T00:52:21.089Z,97635.86
2023-05-21T00:54:51.964Z,97627.44
2023-05-21T00:57:23.523Z,97626.77
2023-05-21T00:59:53.926Z,97623.41
2023-05-21T01:02:23.756Z,97639.00
2023-05-21T01:04:55.860Z,97631.80
2023-05-21T01:07:24.152Z,97632.59
2023-05-21T01:09:53.766Z,97627.16
2023-05-21T01:12:24.934Z,97633.28
2023-05-21T01:14:54.711Z,97629.58
2023-05-21T01:17:23.973Z,97627.89
2023-05-21T01:19:54.178Z,97625.55
2023-05-21T01:22:24.596Z,97635.44
2023-05-21T01:24:55.100Z,97633.55
2023-05-21T01:27:23.037Z,97624.48
2023-05-21T01:29:51.488Z,97630.92
2023-05-21T01:32:36.837Z,97630.69
2023-05-21T01:35:11.138Z,97619.85
2023-05-21T01:38:05.326Z,97625.42
2023-05-21T01:40:47.814Z,97612.56
2023-05-21T01:43:16.519Z,97613.14
2023-05-21T01:45:46.544Z,97616.06
2023-05-21T01:48:16.877Z,97614.13
2023-05-21T01:50:45.933Z,97614.13
2023-05-21T01:53:15.346Z,97607.81
2023-05-21T01:55:43.416Z,97604.53
2023-05-21T01:58:11.355Z,97604.73
2023-05-21T02:00:39.883Z,97604.41
2023-05-21T02:03:08.398Z,97598.05
2023-05-21T02:05:36.752Z,97594.20
2023-05-21T02:08:07.098Z,97592.30
2023-05-21T02:10:36.085Z,97592.84
2023-05-21T02:13:04.184Z,97591.48
2023-05-21T02:15:33.973Z,97593.30
2023-05-21T02:18:02.096Z,97600.07
2023-05-21T02:20:40.510Z,97596.45
2023-05-21T02:23:08.455Z,97595.64
2023-05-21T02:25:38.025Z,97599.17
2023-05-21T02:28:09.157Z,97594.66
2023-05-21T02:30:40.729Z,97593.98
2023-05-21T02:33:09.494Z,97593.57
2023-05-21T02:35:38.295Z,97592.91
2023-05-21T02:38:08.119Z,97595.73
2023-05-21T02:40:36.553Z,97590.66
2023-05-21T02:43:04.454Z,97589.66
2023-05-21T02:45:32.680Z,97591.92
2023-05-21T02:48:02.141Z,97592.97
2023-05-21T02:50:31.115Z,97589.27
2023-05-21T02:52:59.797Z,97591.65
2023-05-21T02:55:28.625Z,97597.42
2023-05-21T02:57:58.253Z,97591.80
2023-05-21T03:00:26.743Z,97593.94
2023-05-21T03:02:55.286Z,97597.52
2023-05-21T03:05:23.957Z,97596.41
2023-05-21T03:07:52.782Z,97593.55
2023-05-21T03:10:21.271Z,97597.96
2023-05-21T03:12:49.184Z,97604.34
2023-05-21T03:15:18.212Z,97600.22
2023-05-21T03:17:46.150Z,97602.30
2023-05-21T03:20:15.804Z,97599.67
2023-05-21T03:22:45.274Z,97601.64
2023-05-21T03:25:14.709Z,97597.56
2023-05-21T03:27:43.100Z,97594.30
2023-05-21T03:30:13.851Z,97592.22
2023-05-21T03:32:45.563Z,97592.87
2023-05-21T03:35:14.985Z,97590.02
2023-05-21T03:37:43.217Z,97587.48
2023-05-21T03:40:12.915Z,97580.70
2023-05-21T03:42:41.140Z,97584.33
2023-05-21T03:45:10.204Z,97579.09
2023-05-21T03:47:54.713Z,97583.23
2023-05-21T03:50:23.026Z,97582.00
2023-05-21T03:52:51.459Z,97580.69
2023-05-21T03:55:19.211Z,97585.50
2023-05-21T03:57:51.420Z,97583.95
2023-05-21T04:00:19.713Z,97589.83
2023-05-21T04:02:52.625Z,97589.69
2023-05-21T04:05:22.629Z,97589.95
2023-05-21T04:07:52.131Z,97595.30
2023-05-21T04:10:20.054Z,97595.42
2023-05-21T04:12:49.946Z,97596.80
2023-05-21T04:15:19.184Z,97594.14
2023-05-21T04:17:47.297Z,97587.89
2023-05-21T04:20:16.672Z,97591.38
2023-05-21T04:22:46.846Z,97584.44
2023-05-21T04:25:15.032Z,97577.82
2023-05-21T04:27:43.205Z,97575.25
2023-05-21T04:30:11.340Z,97568.45
2023-05-21T04:32:40.198Z,97564.69
2023-05-21T04:35:09.753Z,97561.13
2023-05-21T04:37:39.986Z,97565.34
2023-05-21T04:40:10.094Z,97557.20
2023-05-21T04:42:38.706Z,97561.41
2023-05-21T04:45:08.359Z,97565.03
2023-05-21T04:47:38.275Z,97568.52
2023-05-21T04:50:07.830Z,97564.34
2023-05-21T04:52:38.275Z,97565.84
2023-05-21T04:55:08.547Z,97571.27
2023-05-21T04:57:37.036Z,97564.83
2023-05-21T05:00:08.297Z,97570.17
2023-05-21T05:02:39.744Z,97570.48
2023-05-21T05:05:09.008Z,97564.56
2023-05-21T05:07:37.528Z,97566.05
2023-05-21T05:10:08.725Z,97568.17
2023-05-21T05:12:36.914Z,97567.13
2023-05-21T05:15:07.211Z,97562.55
2023-05-21T05:17:35.342Z,97563.23
2023-05-21T05:20:04.607Z,97565.99
2023-05-21T05:22:35.365Z,97567.92
2023-05-21T05:25:06.427Z,97569.05
2023-05-21T05:27:36.993Z,97575.19
2023-05-21T05:30:05.483Z,97570.22
2023-05-21T05:32:38.476Z,97569.25
2023-05-21T05:35:13.423Z,97565.07
2023-05-21T05:37:41.947Z,97564.11
2023-05-21T05:40:12.916Z,97559.96
2023-05-21T05:42:40.838Z,97562.09
2023-05-21T05:45:11.730Z,97558.77
2023-05-21T05:47:41.278Z,97557.73
2023-05-21T05:50:09.684Z,97549.08
2023-05-21T05:52:37.759Z,97547.52
2023-05-21T05:55:08.380Z,97550.91
2023-05-21T05:57:36.290Z,97545.89
2023-05-21T06:00:09.368Z,97541.05
2023-05-21T06:02:39.199Z,97545.11
2023-05-21T06:05:09.427Z,97533.48
2023-05-21T06:10:34.636Z,97528.11
2023-05-21T06:13:04.783Z,97522.05
2023-05-21T06:15:33.706Z,97525.33
2023-05-21T06:18:01.855Z,97527.42
2023-05-21T06:20:36.763Z,97533.02
2023-05-21T06:23:05.993Z,97520.47
2023-05-21T06:25:34.426Z,97521.53
2023-05-21T06:28:04.066Z,97520.88
2023-05-21T06:30:32.311Z,97517.03
2023-05-21T06:33:11.170Z,97517.98
2023-05-21T06:35:49.575Z,97514.13
2023-05-21T06:38:35.972Z,97514.49
2023-05-21T06:41:03.884Z,97516.34
2023-05-21T06:43:36.354Z,97508.12
2023-05-21T06:46:24.223Z,97511.78
2023-05-21T06:49:03.534Z,97506.45
2023-05-21T06:51:31.422Z,97509.22
2023-05-21T06:54:03.825Z,97507.27
2023-05-21T06:56:31.654Z,97503.13
2023-05-21T06:58:59.715Z,97501.77
2023-05-21T07:01:28.480Z,97504.81
2023-05-21T07:03:56.218Z,97505.06
2023-05-21T07:06:27.305Z,97498.53
2023-05-21T07:08:55.068Z,97500.19
2023-05-21T07:11:24.787Z,97499.95
2023-05-21T07:13:52.448Z,97494.34
2023-05-21T07:16:20.501Z,97491.34
2023-05-21T07:18:48.814Z,97493.50
2023-05-21T07:21:16.693Z,97495.73
2023-05-21T07:23:44.971Z,97487.52
2023-05-21T07:26:13.060Z,97485.46
2023-05-21T07:28:42.766Z,97491.41
2023-05-21T07:31:12.699Z,97487.90
2023-05-21T07:33:42.211Z,97488.55
2023-05-21T07:36:11.133Z,97488.19
2023-05-21T07:38:39.983Z,97486.54
2023-05-21T07:41:11.454Z,97485.06
2023-05-21T07:43:39.762Z,97490.33
2023-05-21T07:46:07.732Z,97493.95
2023-05-21T07:48:35.903Z,97486.92
2023-05-21T07:51:04.599Z,97490.72
2023-05-21T07:53:32.905Z,97487.22
2023-05-21T07:56:02.171Z,97480.39
2023-05-21T07:58:30.601Z,97482.19
2023-05-21T08:00:58.324Z,97474.39
2023-05-21T08:03:28.875Z,97473.23
2023-05-21T08:05:58.077Z,97470.03
2023-05-21T08:08:26.135Z,97469.64
2023-05-21T08:10:54.897Z,97465.56
2023-05-21T08:13:23.383Z,97462.91
2023-05-21T08:15:53.413Z,97460.85
2023-05-21T08:18:23.271Z,97462.92
2023-05-21T08:20:51.368Z,97459.15
2023-05-21T08:23:19.746Z,97460.05
2023-05-21T08:25:49.804Z,97453.63
2023-05-21T08:28:18.248Z,97458.08
2023-05-21T08:33:58.807Z,97455.58
2023-05-21T08:36:32.517Z,97450.19
2023-05-21T08:39:14.404Z,97454.84
2023-05-21T08:41:46.616Z,97452.71
2023-05-21T08:58:07.325Z,97439.97
2023-05-21T09:08:15.160Z,97449.06
2023-05-21T09:11:12.988Z,97451.01
2023-05-21T09:14:06.118Z,97441.94
2023-05-21T09:23:36.910Z,97440.49
2023-05-21T09:32:46.910Z,97441.53
2023-05-21T09:38:34.621Z,97433.84
2023-05-21T09:41:21.514Z,97440.04
2023-05-21T09:47:13.644Z,97435.95
2023-05-21T09:49:48.782Z,97431.48
2023-05-21T09:52:27.266Z,97440.25
2023-05-21T09:55:03.835Z,97427.56
2023-05-21T09:57:55.492Z,97433.73
2023-05-21T10:07:06.166Z,97424.64
2023-05-21T10:10:32.118Z,97427.31
2023-05-21T10:20:22.263Z,97416.54
2023-05-21T10:23:02.768Z,97404.97
2023-05-21T10:25:45.831Z,97412.15
2023-05-21T10:28:36.840Z,97414.64
2023-05-21T10:31:57.592Z,97409.11
2023-05-21T10:34:43.819Z,97413.60
2023-05-21T10:41:23.033Z,97407.45
2023-05-21T10:44:32.694Z,97402.42
2023-05-21T10:54:17.213Z,97396.06
2023-05-21T11:00:24.835Z,97389.77
2023-05-21T11:03:07.309Z,97396.42
2023-05-21T11:09:41.067Z,97390.43
2023-05-21T11:12:09.308Z,97384.33
2023-05-21T11:14:44.141Z,97385.53
2023-05-21T11:24:23.598Z,97377.22
2023-05-21T11:30:29.454Z,97371.20
2023-05-21T11:41:12.555Z,97373.72
2023-05-21T13:23:56.927Z,97321.33
2023-05-21T13:46:46.227Z,97296.56
2023-05-21T14:13:15.446Z,97278.41
2023-05-21T14:15:36.583Z,97273.23
2023-05-21T14:18:34.681Z,97266.08
2023-05-21T14:25:15.359Z,97281.41
2023-05-21T14:28:13.054Z,97267.23
2023-05-21T14:31:05.757Z,97273.36
2023-05-21T14:59:46.402Z,97256.95
2023-05-21T15:05:53.795Z,97261.33
2023-05-21T15:09:06.993Z,97254.78
2023-05-21T15:11:42.174Z,97261.33
2023-05-21T15:11:43.831Z,97250.80
2023-05-21T15:14:26.225Z,97250.80
2023-05-21T15:20:19.647Z,97250.63
2023-05-21T15:23:16.834Z,97253.45
2023-05-21T15:26:08.535Z,97248.16
2023-05-21T15:28:43.864Z,97247.53
2023-05-21T15:31:37.913Z,97245.30
2023-05-21T15:34:36.435Z,97249.80
2023-05-21T15:37:08.139Z,97241.92
2023-05-21T15:39:47.769Z,97247.77
2023-05-21T15:42:17.065Z,97251.95
2023-05-21T15:44:51.158Z,97254.13
2023-05-21T15:47:19.826Z,97248.03
2023-05-21T15:49:56.305Z,97251.78
2023-05-21T15:52:25.388Z,97255.60
2023-05-21T15:54:56.569Z,97258.19
2023-05-21T15:57:27.556Z,97255.67
2023-05-21T15:59:55.680Z,97265.08
2023-05-21T16:02:24.033Z,97256.22
2023-05-21T16:04:52.269Z,97262.38
2023-05-21T16:07:20.769Z,97267.94
2023-05-21T16:09:49.051Z,97261.67
2023-05-21T16:12:17.391Z,97268.28
2023-05-21T16:14:50.997Z,97271.89
2023-05-21T16:17:20.255Z,97273.90
2023-05-21T16:19:56.905Z,97269.84
2023-05-21T16:22:29.833Z,97276.16
2023-05-21T16:25:00.148Z,97275.94
2023-05-21T16:27:38.248Z,97276.99
2023-05-21T16:30:07.482Z,97281.05
2023-05-21T16:32:40.086Z,97273.28
2023-05-21T16:35:16.260Z,97276.30
2023-05-21T16:37:44.493Z,97284.62
2023-05-21T16:40:15.947Z,97288.50
2023-05-21T16:42:47.128Z,97285.07
2023-05-21T16:45:17.213Z,97287.61
2023-05-21T16:47:52.169Z,97291.47
2023-05-21T16:50:20.668Z,97286.89
2023-05-21T16:53:03.464Z,97289.81
2023-05-21T16:55:52.798Z,97286.04
2023-05-21T16:58:49.414Z,97289.07
2023-05-21T17:01:34.091Z,97285.28
2023-05-21T17:05:05.318Z,97290.13
2023-05-21T17:08:14.707Z,97291.00
2023-05-21T17:10:55.414Z,97290.71
2023-05-21T17:13:44.959Z,97294.67
2023-05-21T17:16:12.886Z,97291.42
2023-05-21T17:18:42.878Z,97293.08
2023-05-21T17:21:10.958Z,97301.39
2023-05-21T17:23:38.924Z,97304.78
2023-05-21T17:26:09.129Z,97309.94
2023-05-21T17:28:37.201Z,97314.05
2023-05-21T17:31:08.617Z,97314.28
2023-05-21T17:33:37.703Z,97319.38
2023-05-21T17:36:06.084Z,97322.74
2023-05-21T17:38:34.556Z,97323.18
2023-05-21T17:41:05.640Z,97330.23
2023-05-21T17:43:33.558Z,97334.53
2023-05-21T17:46:01.564Z,97335.92
2023-05-21T17:48:31.138Z,97340.05
2023-05-21T17:51:01.170Z,97341.02
2023-05-21T17:53:30.433Z,97341.25
2023-05-21T17:55:58.652Z,97348.09
2023-05-21T17:58:26.736Z,97348.45
2023-05-21T18:00:55.799Z,97343.58
2023-05-21T18:03:24.330Z,97348.27
2023-05-21T18:05:52.978Z,97354.70
2023-05-21T18:08:21.604Z,97356.85
2023-05-21T18:10:49.559Z,97361.17
2023-05-21T18:13:17.933Z,97361.73
2023-05-21T18:15:45.918Z,97361.72
2023-05-21T18:18:16.952Z,97361.13
2023-05-21T18:20:45.603Z,97367.95
2023-05-21T18:23:13.626Z,97370.30
2023-05-21T18:25:41.662Z,97373.22
2023-05-21T18:28:10.048Z,97367.16
2023-05-21T18:30:37.973Z,97375.14
2023-05-21T18:33:07.835Z,97379.80
2023-05-21T18:35:35.761Z,97379.94
2023-05-21T18:38:05.553Z,97384.77
2023-05-21T18:40:33.459Z,97390.39
2023-05-21T18:43:03.153Z,97392.31
2023-05-21T18:45:31.141Z,97395.59
2023-05-21T18:47:59.958Z,97397.70
2023-05-21T18:50:27.812Z,97400.98
2023-05-21T18:52:58.524Z,97409.49
2023-05-21T18:55:31.280Z,97411.20
2023-05-21T18:58:02.259Z,97413.28
2023-05-21T19:00:30.088Z,97420.24
2023-05-21T19:02:59.252Z,97423.08
2023-05-21T19:05:27.782Z,97418.97
2023-05-21T19:07:57.969Z,97424.78
2023-05-21T19:10:25.714Z,97429.04
2023-05-21T19:12:54.057Z,97429.79
2023-05-21T19:15:22.386Z,97429.41
2023-05-21T19:17:51.431Z,97428.20
2023-05-21T19:20:24.480Z,97427.40
2023-05-21T19:22:53.462Z,97431.66
2023-05-21T19:25:21.582Z,97425.00
2023-05-21T19:27:49.498Z,97427.92
2023-05-21T19:30:17.879Z,97430.81
2023-05-21T19:32:46.585Z,97429.42
2023-05-21T19:35:16.192Z,97432.31
2023-05-21T19:37:44.128Z,97438.34
2023-05-21T19:40:16.175Z,97436.78
2023-05-21T19:42:44.854Z,97435.97
2023-05-21T19:45:15.244Z,97434.77
2023-05-21T19:47:44.743Z,97436.88
2023-05-21T19:50:12.946Z,97436.27
2023-05-21T19:52:43.058Z,97435.48
2023-05-21T19:55:13.659Z,97436.81
2023-05-21T19:57:42.034Z,97437.39
2023-05-21T20:00:11.544Z,97438.56
2023-05-21T20:02:44.073Z,97430.52
2023-05-21T20:05:12.219Z,97438.14
2023-05-21T20:07:40.933Z,97443.39
2023-05-21T20:10:10.604Z,97441.45
2023-05-21T20:12:38.961Z,97435.22
2023-05-21T20:15:08.262Z,97437.16
2023-05-21T20:17:38.249Z,97439.89
2023-05-21T20:20:09.215Z,97442.38
2023-05-21T20:22:37.562Z,97440.63
2023-05-21T20:25:08.274Z,97443.71
2023-05-21T20:27:38.256Z,97438.07
2023-05-21T20:30:08.088Z,97444.06
2023-05-21T20:32:36.332Z,97447.14
2023-05-21T20:35:04.858Z,97444.38
2023-05-21T20:37:33.393Z,97445.93
2023-05-21T20:40:01.719Z,97442.55
2023-05-21T20:42:31.486Z,97445.05
2023-05-21T20:44:59.479Z,97446.52
2023-05-21T20:47:29.375Z,97445.28
2023-05-21T20:49:59.605Z,97443.25
2023-05-21T20:52:27.654Z,97446.47
2023-05-21T20:54:57.378Z,97445.80
2023-05-21T20:57:28.233Z,97448.86
2023-05-21T20:59:56.498Z,97451.89
2023-05-21T21:02:28.105Z,97453.36
2023-05-21T21:04:57.332Z,97448.45
2023-05-21T21:07:25.563Z,97451.70
2023-05-21T21:09:53.676Z,97450.25
2023-05-21T21:12:26.636Z,97453.02
2023-05-21T21:14:51.410Z,97456.22
2023-05-21T21:17:19.476Z,97465.48
2023-05-21T21:19:49.008Z,97468.14
2023-05-21T21:22:17.796Z,97466.73
2023-05-21T21:24:45.985Z,97472.89
2023-05-21T21:27:15.776Z,97477.55
2023-05-21T21:29:44.533Z,97474.98
2023-05-21T21:32:12.719Z,97473.77
2023-05-21T21:34:40.742Z,97473.10
2023-05-21T21:37:08.549Z,97476.92
2023-05-21T21:39:38.252Z,97477.64
2023-05-21T21:42:06.859Z,97477.79
2023-05-21T21:44:34.763Z,97467.50
2023-05-21T21:47:02.730Z,97466.72
2023-05-21T21:49:31.134Z,97467.82
2023-05-21T21:51:59.258Z,97473.39
2023-05-21T21:54:27.340Z,97469.06
2023-05-21T21:56:55.620Z,97477.36
2023-05-21T21:59:23.840Z,97475.73
2023-05-21T22:01:55.655Z,97466.95
2023-05-21T22:04:23.766Z,97469.95
2023-05-21T22:06:53.397Z,97473.62
2023-05-21T22:09:24.304Z,97473.76
2023-05-21T22:11:53.051Z,97473.63
2023-05-21T22:14:21.115Z,97475.77
2023-05-21T22:16:49.083Z,97470.66
2023-05-21T22:19:19.027Z,97471.52
2023-05-21T22:21:47.551Z,97467.95
2023-05-21T22:24:30.959Z,97474.47
2023-05-21T22:26:45.706Z,97480.55
2023-05-21T22:29:13.609Z,97472.11
2023-05-21T22:31:41.612Z,97470.41
2023-05-21T22:34:09.497Z,97467.77
2023-05-21T22:36:38.240Z,97469.93
2023-05-21T22:39:06.037Z,97467.62
2023-05-21T22:41:33.993Z,97467.48
2023-05-21T22:44:01.904Z,97462.33
2023-05-21T22:46:29.969Z,97463.41
2023-05-21T22:48:57.807Z,97457.67
2023-05-21T22:51:27.467Z,97457.39
2023-05-21T22:53:55.688Z,97456.91
2023-05-21T22:56:23.423Z,97456.75
2023-05-21T22:58:51.512Z,97453.31
2023-05-21T23:01:19.347Z,97453.37
2023-05-21T23:03:47.230Z,97458.63
2023-05-21T23:06:15.124Z,97453.27
2023-05-21T23:08:42.895Z,97454.05
2023-05-21T23:11:10.894Z,97452.86
2023-05-21T23:13:38.741Z,97451.55
2023-05-21T23:16:07.127Z,97451.17
2023-05-21T23:18:35.270Z,97453.36
2023-05-21T23:21:03.483Z,97447.20
2023-05-21T23:23:31.600Z,97453.43
2023-05-21T23:25:59.880Z,97450.19
2023-05-21T23:28:27.787Z,97452.15
2023-05-21T23:30:55.734Z,97454.23
2023-05-21T23:33:23.605Z,97447.13
2023-05-21T23:35:51.503Z,97447.61
2023-05-21T23:38:19.362Z,97447.52
2023-05-21T23:40:46.966Z,97448.79
2023-05-21T23:43:14.613Z,97446.35
2023-05-21T23:45:42.361Z,97453.56
2023-05-21T23:48:10.071Z,97448.42
2023-05-21T23:50:38.326Z,97446.77
2023-05-21T23:53:06.399Z,97444.30
2023-05-21T23:55:33.851Z,97439.73
2023-05-21T23:58:03.414Z,97439.63
